sensor_id;sensor_type;location;lat;lon;timestamp;P1;durP1;ratioP1;P2;durP2;ratioP2
15946;SDS011;8072;52.554;7.966;2023-03-31T00:01:25;9.07;;;2.60;;
15946;SDS011;8072;52.554;7.966;2023-03-31T00:03:52;10.47;;;2.90;;
15946;SDS011;8072;52.554;7.966;2023-03-31T00:06:26;6.10;;;2.80;;
15946;SDS011;8072;52.554;7.966;2023-03-31T00:08:52;10.93;;;3.17;;
15946;SDS011;8072;52.554;7.966;2023-03-31T00:11:18;12.60;;;2.60;;
15946;SDS011;8072;52.554;7.966;2023-03-31T00:13:45;12.13;;;2.43;;
15946;SDS011;8072;52.554;7.966;2023-03-31T00:16:11;8.87;;;2.47;;
15946;SDS011;8072;52.554;7.966;2023-03-31T00:18:37;9.43;;;2.43;;
15946;SDS011;8072;52.554;7.966;2023-03-31T00:21:12;8.83;;;2.60;;
15946;SDS011;8072;52.554;7.966;2023-03-31T00:23:48;7.67;;;2.43;;
15946;SDS011;8072;52.554;7.966;2023-03-31T00:26:18;10.43;;;2.57;;
15946;SDS011;8072;52.554;7.966;2023-03-31T00:28:44;11.80;;;2.70;;
15946;SDS011;8072;52.554;7.966;2023-03-31T00:31:09;8.43;;;3.00;;
15946;SDS011;8072;52.554;7.966;2023-03-31T00:33:35;8.40;;;2.43;;
15946;SDS011;8072;52.554;7.966;2023-03-31T00:36:01;9.90;;;2.37;;
15946;SDS011;8072;52.554;7.966;2023-03-31T00:38:30;6.53;;;2.20;;
15946;SDS011;8072;52.554;7.966;2023-03-31T00:40:57;9.40;;;1.97;;
15946;SDS011;8072;52.554;7.966;2023-03-31T00:43:28;6.50;;;2.20;;
15946;SDS011;8072;52.554;7.966;2023-03-31T00:45:55;6.73;;;2.13;;
15946;SDS011;8072;52.554;7.966;2023-03-31T00:48:46;7.67;;;1.97;;
15946;SDS011;8072;52.554;7.966;2023-03-31T00:51:15;8.90;;;2.20;;
15946;SDS011;8072;52.554;7.966;2023-03-31T00:53:43;7.07;;;2.00;;
15946;SDS011;8072;52.554;7.966;2023-03-31T00:56:12;9.13;;;2.50;;
15946;SDS011;8072;52.554;7.966;2023-03-31T00:58:40;10.90;;;2.80;;
15946;SDS011;8072;52.554;7.966;2023-03-31T01:01:09;8.13;;;2.30;;
15946;SDS011;8072;52.554;7.966;2023-03-31T01:03:41;10.57;;;2.13;;
15946;SDS011;8072;52.554;7.966;2023-03-31T01:06:09;8.80;;;2.10;;
15946;SDS011;8072;52.554;7.966;2023-03-31T01:08:36;7.17;;;2.07;;
15946;SDS011;8072;52.554;7.966;2023-03-31T01:11:05;5.97;;;2.03;;
15946;SDS011;8072;52.554;7.966;2023-03-31T01:13:37;6.30;;;1.80;;
15946;SDS011;8072;52.554;7.966;2023-03-31T01:16:05;7.50;;;2.00;;
15946;SDS011;8072;52.554;7.966;2023-03-31T01:18:31;8.93;;;2.00;;
15946;SDS011;8072;52.554;7.966;2023-03-31T01:24:15;8.90;;;2.50;;
15946;SDS011;8072;52.554;7.966;2023-03-31T01:38:05;11.10;;;2.30;;
15946;SDS011;8072;52.554;7.966;2023-03-31T01:40:54;5.47;;;2.53;;
15946;SDS011;8072;52.554;7.966;2023-03-31T01:49:05;6.73;;;2.47;;
15946;SDS011;8072;52.554;7.966;2023-03-31T01:51:43;8.87;;;2.50;;
15946;SDS011;8072;52.554;7.966;2023-03-31T01:54:38;7.63;;;1.90;;
15946;SDS011;8072;52.554;7.966;2023-03-31T01:57:17;8.13;;;2.80;;
15946;SDS011;8072;52.554;7.966;2023-03-31T01:59:56;10.20;;;2.20;;
15946;SDS011;8072;52.554;7.966;2023-03-31T02:02:28;10.50;;;2.13;;
15946;SDS011;8072;52.554;7.966;2023-03-31T02:04:58;9.07;;;2.20;;
15946;SDS011;8072;52.554;7.966;2023-03-31T02:07:31;8.07;;;2.27;;
15946;SDS011;8072;52.554;7.966;2023-03-31T02:10:03;9.00;;;2.00;;
15946;SDS011;8072;52.554;7.966;2023-03-31T02:12:33;7.90;;;2.30;;
15946;SDS011;8072;52.554;7.966;2023-03-31T02:15:03;8.20;;;2.17;;
15946;SDS011;8072;52.554;7.966;2023-03-31T02:17:31;6.57;;;2.00;;
15946;SDS011;8072;52.554;7.966;2023-03-31T02:20:03;5.43;;;1.80;;
15946;SDS011;8072;52.554;7.966;2023-03-31T02:22:36;11.43;;;2.50;;
15946;SDS011;8072;52.554;7.966;2023-03-31T02:25:05;9.57;;;2.20;;
15946;SDS011;8072;52.554;7.966;2023-03-31T02:27:37;7.73;;;2.27;;
15946;SDS011;8072;52.554;7.966;2023-03-31T02:30:06;7.53;;;2.23;;
15946;SDS011;8072;52.554;7.966;2023-03-31T02:32:41;5.43;;;2.27;;
15946;SDS011;8072;52.554;7.966;2023-03-31T02:35:10;9.67;;;3.07;;
15946;SDS011;8072;52.554;7.966;2023-03-31T02:37:39;5.17;;;2.43;;
15946;SDS011;8072;52.554;7.966;2023-03-31T02:40:07;7.63;;;2.27;;
15946;SDS011;8072;52.554;7.966;2023-03-31T02:42:38;5.60;;;2.20;;
15946;SDS011;8072;52.554;7.966;2023-03-31T02:45:32;10.70;;;2.73;;
15946;SDS011;8072;52.554;7.966;2023-03-31T02:47:57;7.33;;;2.40;;
15946;SDS011;8072;52.554;7.966;2023-03-31T02:50:23;6.53;;;2.97;;
15946;SDS011;8072;52.554;7.966;2023-03-31T02:53:02;9.23;;;2.80;;
15946;SDS011;8072;52.554;7.966;2023-03-31T03:04:06;9.17;;;3.40;;
15946;SDS011;8072;52.554;7.966;2023-03-31T03:09:35;12.00;;;3.57;;
15946;SDS011;8072;52.554;7.966;2023-03-31T03:12:25;14.57;;;4.27;;
15946;SDS011;8072;52.554;7.966;2023-03-31T03:17:39;9.80;;;4.80;;
15946;SDS011;8072;52.554;7.966;2023-03-31T03:20:08;8.93;;;4.17;;
15946;SDS011;8072;52.554;7.966;2023-03-31T03:22:36;8.97;;;4.60;;
15946;SDS011;8072;52.554;7.966;2023-03-31T03:25:07;12.20;;;4.73;;
15946;SDS011;8072;52.554;7.966;2023-03-31T03:27:35;13.90;;;4.80;;
15946;SDS011;8072;52.554;7.966;2023-03-31T03:30:01;9.37;;;4.87;;
15946;SDS011;8072;52.554;7.966;2023-03-31T03:32:28;12.90;;;5.13;;
15946;SDS011;8072;52.554;7.966;2023-03-31T03:34:56;10.57;;;4.93;;
15946;SDS011;8072;52.554;7.966;2023-03-31T03:37:22;16.60;;;5.73;;
15946;SDS011;8072;52.554;7.966;2023-03-31T03:39:47;11.97;;;5.27;;
15946;SDS011;8072;52.554;7.966;2023-03-31T03:42:13;12.93;;;6.10;;
15946;SDS011;8072;52.554;7.966;2023-03-31T03:44:39;17.43;;;5.70;;
15946;SDS011;8072;52.554;7.966;2023-03-31T03:47:04;14.87;;;6.23;;
15946;SDS011;8072;52.554;7.966;2023-03-31T03:49:30;14.57;;;6.00;;
15946;SDS011;8072;52.554;7.966;2023-03-31T03:51:56;11.60;;;6.13;;
15946;SDS011;8072;52.554;7.966;2023-03-31T03:54:22;13.30;;;5.50;;
15946;SDS011;8072;52.554;7.966;2023-03-31T03:56:47;12.43;;;6.50;;
15946;SDS011;8072;52.554;7.966;2023-03-31T03:59:13;10.90;;;6.50;;
15946;SDS011;8072;52.554;7.966;2023-03-31T04:01:39;12.30;;;6.47;;
15946;SDS011;8072;52.554;7.966;2023-03-31T04:04:06;16.77;;;6.77;;
15946;SDS011;8072;52.554;7.966;2023-03-31T04:06:32;12.53;;;6.30;;
15946;SDS011;8072;52.554;7.966;2023-03-31T04:08:59;15.37;;;6.40;;
15946;SDS011;8072;52.554;7.966;2023-03-31T04:11:26;10.23;;;5.90;;
15946;SDS011;8072;52.554;7.966;2023-03-31T04:13:52;12.00;;;6.33;;
15946;SDS011;8072;52.554;7.966;2023-03-31T04:16:18;13.50;;;6.67;;
15946;SDS011;8072;52.554;7.966;2023-03-31T04:18:44;13.90;;;6.03;;
15946;SDS011;8072;52.554;7.966;2023-03-31T04:21:10;11.13;;;6.00;;
15946;SDS011;8072;52.554;7.966;2023-03-31T04:23:41;16.63;;;6.80;;
15946;SDS011;8072;52.554;7.966;2023-03-31T04:26:14;10.20;;;6.30;;
15946;SDS011;8072;52.554;7.966;2023-03-31T04:28:42;13.50;;;6.80;;
15946;SDS011;8072;52.554;7.966;2023-03-31T04:31:11;13.23;;;6.23;;
15946;SDS011;8072;52.554;7.966;2023-03-31T04:33:49;14.20;;;6.00;;
15946;SDS011;8072;52.554;7.966;2023-03-31T04:36:16;12.93;;;6.00;;
15946;SDS011;8072;52.554;7.966;2023-03-31T04:38:46;12.27;;;6.20;;
15946;SDS011;8072;52.554;7.966;2023-03-31T04:41:23;11.00;;;6.30;;
15946;SDS011;8072;52.554;7.966;2023-03-31T04:43:49;9.70;;;5.80;;
15946;SDS011;8072;52.554;7.966;2023-03-31T04:46:15;11.97;;;5.17;;
15946;SDS011;8072;52.554;7.966;2023-03-31T04:48:41;14.63;;;5.50;;
15946;SDS011;8072;52.554;7.966;2023-03-31T04:51:07;10.67;;;5.30;;
15946;SDS011;8072;52.554;7.966;2023-03-31T04:53:33;11.00;;;5.27;;
15946;SDS011;8072;52.554;7.966;2023-03-31T04:55:59;11.07;;;5.13;;
15946;SDS011;8072;52.554;7.966;2023-03-31T04:58:25;10.30;;;5.97;;
15946;SDS011;8072;52.554;7.966;2023-03-31T05:00:52;11.03;;;6.07;;
15946;SDS011;8072;52.554;7.966;2023-03-31T05:03:18;9.40;;;5.73;;
15946;SDS011;8072;52.554;7.966;2023-03-31T05:05:45;6.67;;;4.97;;
15946;SDS011;8072;52.554;7.966;2023-03-31T05:08:11;12.70;;;5.97;;
15946;SDS011;8072;52.554;7.966;2023-03-31T05:10:38;10.10;;;5.23;;
15946;SDS011;8072;52.554;7.966;2023-03-31T05:13:03;9.23;;;5.70;;
15946;SDS011;8072;52.554;7.966;2023-03-31T05:15:29;11.13;;;6.63;;
15946;SDS011;8072;52.554;7.966;2023-03-31T05:17:56;9.90;;;5.93;;
15946;SDS011;8072;52.554;7.966;2023-03-31T05:20:23;10.10;;;6.13;;
15946;SDS011;8072;52.554;7.966;2023-03-31T05:22:48;9.80;;;6.13;;
15946;SDS011;8072;52.554;7.966;2023-03-31T05:25:15;14.80;;;6.73;;
15946;SDS011;8072;52.554;7.966;2023-03-31T05:27:43;15.53;;;6.40;;
15946;SDS011;8072;52.554;7.966;2023-03-31T05:30:14;11.90;;;6.40;;
15946;SDS011;8072;52.554;7.966;2023-03-31T05:32:41;15.13;;;7.30;;
15946;SDS011;8072;52.554;7.966;2023-03-31T05:35:07;13.17;;;6.70;;
15946;SDS011;8072;52.554;7.966;2023-03-31T05:37:33;13.20;;;6.53;;
15946;SDS011;8072;52.554;7.966;2023-03-31T05:39:59;14.53;;;6.70;;
15946;SDS011;8072;52.554;7.966;2023-03-31T05:42:25;18.13;;;7.50;;
15946;SDS011;8072;52.554;7.966;2023-03-31T05:44:51;15.00;;;7.73;;
15946;SDS011;8072;52.554;7.966;2023-03-31T05:47:16;16.00;;;7.77;;
15946;SDS011;8072;52.554;7.966;2023-03-31T05:49:42;13.63;;;8.13;;
15946;SDS011;8072;52.554;7.966;2023-03-31T05:52:09;16.53;;;8.40;;
15946;SDS011;8072;52.554;7.966;2023-03-31T05:54:36;14.03;;;8.73;;
15946;SDS011;8072;52.554;7.966;2023-03-31T05:57:02;11.60;;;8.27;;
15946;SDS011;8072;52.554;7.966;2023-03-31T05:59:28;15.97;;;8.47;;
15946;SDS011;8072;52.554;7.966;2023-03-31T06:01:54;14.93;;;9.27;;
15946;SDS011;8072;52.554;7.966;2023-03-31T06:04:19;19.37;;;9.20;;
15946;SDS011;8072;52.554;7.966;2023-03-31T06:06:45;14.23;;;8.37;;
15946;SDS011;8072;52.554;7.966;2023-03-31T06:09:14;14.93;;;9.50;;
15946;SDS011;8072;52.554;7.966;2023-03-31T06:11:40;16.80;;;9.23;;
15946;SDS011;8072;52.554;7.966;2023-03-31T06:14:06;19.27;;;9.27;;
15946;SDS011;8072;52.554;7.966;2023-03-31T06:16:31;17.23;;;8.77;;
15946;SDS011;8072;52.554;7.966;2023-03-31T06:18:58;16.67;;;9.10;;
15946;SDS011;8072;52.554;7.966;2023-03-31T06:21:24;18.53;;;9.53;;
15946;SDS011;8072;52.554;7.966;2023-03-31T06:23:50;16.37;;;10.27;;
15946;SDS011;8072;52.554;7.966;2023-03-31T06:26:20;16.70;;;9.33;;
15946;SDS011;8072;52.554;7.966;2023-03-31T06:28:46;17.70;;;10.43;;
15946;SDS011;8072;52.554;7.966;2023-03-31T06:31:17;22.40;;;11.40;;
15946;SDS011;8072;52.554;7.966;2023-03-31T06:33:45;19.63;;;9.90;;
15946;SDS011;8072;52.554;7.966;2023-03-31T06:36:12;19.83;;;9.97;;
15946;SDS011;8072;52.554;7.966;2023-03-31T06:38:39;16.93;;;9.33;;
15946;SDS011;8072;52.554;7.966;2023-03-31T06:41:06;16.80;;;9.90;;
15946;SDS011;8072;52.554;7.966;2023-03-31T06:43:33;19.90;;;9.33;;
15946;SDS011;8072;52.554;7.966;2023-03-31T06:45:59;16.07;;;9.40;;
15946;SDS011;8072;52.554;7.966;2023-03-31T06:48:25;20.43;;;10.30;;
15946;SDS011;8072;52.554;7.966;2023-03-31T06:50:52;22.07;;;9.73;;
15946;SDS011;8072;52.554;7.966;2023-03-31T06:53:18;16.10;;;9.37;;
15946;SDS011;8072;52.554;7.966;2023-03-31T06:55:46;16.53;;;9.30;;
15946;SDS011;8072;52.554;7.966;2023-03-31T06:58:12;19.77;;;9.90;;
15946;SDS011;8072;52.554;7.966;2023-03-31T07:00:37;20.97;;;9.60;;
15946;SDS011;8072;52.554;7.966;2023-03-31T07:03:04;20.13;;;9.00;;
15946;SDS011;8072;52.554;7.966;2023-03-31T07:05:32;17.43;;;8.53;;
15946;SDS011;8072;52.554;7.966;2023-03-31T07:08:00;17.93;;;8.63;;
15946;SDS011;8072;52.554;7.966;2023-03-31T07:10:27;14.27;;;8.13;;
15946;SDS011;8072;52.554;7.966;2023-03-31T07:12:55;14.53;;;7.93;;
15946;SDS011;8072;52.554;7.966;2023-03-31T07:15:21;14.33;;;7.57;;
15946;SDS011;8072;52.554;7.966;2023-03-31T07:17:48;17.53;;;7.93;;
15946;SDS011;8072;52.554;7.966;2023-03-31T07:20:16;12.43;;;7.43;;
15946;SDS011;8072;52.554;7.966;2023-03-31T07:22:46;14.13;;;7.60;;
15946;SDS011;8072;52.554;7.966;2023-03-31T07:25:14;14.30;;;6.57;;
15946;SDS011;8072;52.554;7.966;2023-03-31T07:27:41;17.47;;;6.63;;
15946;SDS011;8072;52.554;7.966;2023-03-31T07:30:08;12.47;;;5.87;;
15946;SDS011;8072;52.554;7.966;2023-03-31T07:32:41;13.07;;;5.33;;
15946;SDS011;8072;52.554;7.966;2023-03-31T07:35:07;10.40;;;5.77;;
15946;SDS011;8072;52.554;7.966;2023-03-31T07:37:35;12.07;;;5.40;;
15946;SDS011;8072;52.554;7.966;2023-03-31T07:40:05;11.57;;;5.43;;
15946;SDS011;8072;52.554;7.966;2023-03-31T07:42:33;16.60;;;4.80;;
15946;SDS011;8072;52.554;7.966;2023-03-31T07:45:00;11.40;;;6.07;;
15946;SDS011;8072;52.554;7.966;2023-03-31T07:47:26;10.67;;;5.27;;
15946;SDS011;8072;52.554;7.966;2023-03-31T07:49:52;11.03;;;5.10;;
15946;SDS011;8072;52.554;7.966;2023-03-31T07:52:18;13.57;;;5.37;;
15946;SDS011;8072;52.554;7.966;2023-03-31T07:54:44;8.53;;;5.10;;
15946;SDS011;8072;52.554;7.966;2023-03-31T07:57:10;8.77;;;5.00;;
15946;SDS011;8072;52.554;7.966;2023-03-31T07:59:37;12.30;;;5.33;;
15946;SDS011;8072;52.554;7.966;2023-03-31T08:02:02;15.07;;;5.27;;
15946;SDS011;8072;52.554;7.966;2023-03-31T08:04:28;14.63;;;5.13;;
15946;SDS011;8072;52.554;7.966;2023-03-31T08:06:54;13.83;;;5.47;;
15946;SDS011;8072;52.554;7.966;2023-03-31T08:09:20;10.77;;;5.10;;
15946;SDS011;8072;52.554;7.966;2023-03-31T08:11:47;10.57;;;4.60;;
15946;SDS011;8072;52.554;7.966;2023-03-31T08:14:14;13.27;;;6.57;;
15946;SDS011;8072;52.554;7.966;2023-03-31T08:16:40;12.33;;;4.73;;
15946;SDS011;8072;52.554;7.966;2023-03-31T08:19:05;9.13;;;4.57;;
15946;SDS011;8072;52.554;7.966;2023-03-31T08:21:31;10.63;;;4.80;;
15946;SDS011;8072;52.554;7.966;2023-03-31T08:23:57;9.00;;;4.57;;
15946;SDS011;8072;52.554;7.966;2023-03-31T08:26:23;9.67;;;4.30;;
15946;SDS011;8072;52.554;7.966;2023-03-31T08:28:49;10.37;;;4.30;;
15946;SDS011;8072;52.554;7.966;2023-03-31T08:31:17;8.50;;;4.10;;
15946;SDS011;8072;52.554;7.966;2023-03-31T08:33:45;13.90;;;4.07;;
15946;SDS011;8072;52.554;7.966;2023-03-31T08:36:11;8.67;;;3.40;;
15946;SDS011;8072;52.554;7.966;2023-03-31T08:38:38;11.43;;;3.90;;
15946;SDS011;8072;52.554;7.966;2023-03-31T08:41:07;8.70;;;2.80;;
15946;SDS011;8072;52.554;7.966;2023-03-31T08:43:46;8.80;;;3.00;;
15946;SDS011;8072;52.554;7.966;2023-03-31T08:46:14;7.20;;;2.60;;
15946;SDS011;8072;52.554;7.966;2023-03-31T08:48:47;7.90;;;2.80;;
15946;SDS011;8072;52.554;7.966;2023-03-31T08:51:19;8.13;;;2.50;;
15946;SDS011;8072;52.554;7.966;2023-03-31T08:56:27;6.33;;;2.43;;
15946;SDS011;8072;52.554;7.966;2023-03-31T08:58:55;5.43;;;2.50;;
15946;SDS011;8072;52.554;7.966;2023-03-31T09:01:31;5.23;;;2.37;;
15946;SDS011;8072;52.554;7.966;2023-03-31T09:15:00;6.07;;;2.67;;
15946;SDS011;8072;52.554;7.966;2023-03-31T09:20:22;7.23;;;2.87;;
15946;SDS011;8072;52.554;7.966;2023-03-31T09:25:48;5.23;;;2.80;;
15946;SDS011;8072;52.554;7.966;2023-03-31T09:28:20;7.70;;;2.93;;
15946;SDS011;8072;52.554;7.966;2023-03-31T09:30:48;4.83;;;3.20;;
15946;SDS011;8072;52.554;7.966;2023-03-31T09:33:26;6.17;;;3.17;;
15946;SDS011;8072;52.554;7.966;2023-03-31T09:35:57;4.43;;;3.20;;
15946;SDS011;8072;52.554;7.966;2023-03-31T09:38:26;4.20;;;3.50;;
15946;SDS011;8072;52.554;7.966;2023-03-31T09:40:57;5.73;;;3.60;;
15946;SDS011;8072;52.554;7.966;2023-03-31T09:43:25;5.37;;;3.50;;
15946;SDS011;8072;52.554;7.966;2023-03-31T09:45:52;3.83;;;3.40;;
15946;SDS011;8072;52.554;7.966;2023-03-31T09:48:22;4.53;;;3.63;;
15946;SDS011;8072;52.554;7.966;2023-03-31T09:50:51;4.33;;;3.40;;
15946;SDS011;8072;52.554;7.966;2023-03-31T09:53:30;5.63;;;3.60;;
15946;SDS011;8072;52.554;7.966;2023-03-31T09:56:00;4.53;;;3.37;;
15946;SDS011;8072;52.554;7.966;2023-03-31T09:58:27;5.67;;;3.40;;
15946;SDS011;8072;52.554;7.966;2023-03-31T10:01:03;4.87;;;3.53;;
15946;SDS011;8072;52.554;7.966;2023-03-31T10:03:30;5.17;;;3.13;;
15946;SDS011;8072;52.554;7.966;2023-03-31T10:06:01;6.50;;;3.50;;
15946;SDS011;8072;52.554;7.966;2023-03-31T10:09:16;5.33;;;3.40;;
15946;SDS011;8072;52.554;7.966;2023-03-31T10:11:26;4.20;;;3.00;;
15946;SDS011;8072;52.554;7.966;2023-03-31T10:18:53;3.87;;;2.60;;
15946;SDS011;8072;52.554;7.966;2023-03-31T10:21:23;4.10;;;2.33;;
15946;SDS011;8072;52.554;7.966;2023-03-31T10:23:51;2.87;;;2.57;;
15946;SDS011;8072;52.554;7.966;2023-03-31T10:26:19;4.40;;;2.30;;
15946;SDS011;8072;52.554;7.966;2023-03-31T10:28:49;4.60;;;2.00;;
15946;SDS011;8072;52.554;7.966;2023-03-31T10:31:17;4.80;;;2.13;;
15946;SDS011;8072;52.554;7.966;2023-03-31T10:34:00;4.40;;;2.30;;
15946;SDS011;8072;52.554;7.966;2023-03-31T10:36:31;3.40;;;2.30;;
15946;SDS011;8072;52.554;7.966;2023-03-31T10:38:57;3.37;;;2.30;;
15946;SDS011;8072;52.554;7.966;2023-03-31T10:41:24;4.47;;;2.00;;
15946;SDS011;8072;52.554;7.966;2023-03-31T10:43:54;4.30;;;2.17;;
15946;SDS011;8072;52.554;7.966;2023-03-31T10:46:38;2.70;;;2.20;;
15946;SDS011;8072;52.554;7.966;2023-03-31T10:51:57;3.70;;;2.20;;
15946;SDS011;8072;52.554;7.966;2023-03-31T10:54:24;5.53;;;2.17;;
15946;SDS011;8072;52.554;7.966;2023-03-31T10:56:54;6.50;;;2.30;;
15946;SDS011;8072;52.554;7.966;2023-03-31T10:59:47;3.73;;;3.00;;
15946;SDS011;8072;52.554;7.966;2023-03-31T11:14:01;3.23;;;2.30;;
15946;SDS011;8072;52.554;7.966;2023-03-31T11:25:19;4.17;;;2.43;;
15946;SDS011;8072;52.554;7.966;2023-03-31T11:45:15;4.53;;;2.63;;
15946;SDS011;8072;52.554;7.966;2023-03-31T11:47:45;5.20;;;3.00;;
15946;SDS011;8072;52.554;7.966;2023-03-31T11:50:18;4.60;;;3.07;;
15946;SDS011;8072;52.554;7.966;2023-03-31T11:52:59;4.77;;;2.97;;
15946;SDS011;8072;52.554;7.966;2023-03-31T11:55:49;6.13;;;2.97;;
15946;SDS011;8072;52.554;7.966;2023-03-31T12:03:42;7.43;;;3.00;;
15946;SDS011;8072;52.554;7.966;2023-03-31T12:06:30;8.50;;;3.10;;
15946;SDS011;8072;52.554;7.966;2023-03-31T12:12:07;9.73;;;2.90;;
15946;SDS011;8072;52.554;7.966;2023-03-31T12:17:09;7.43;;;3.30;;
15946;SDS011;8072;52.554;7.966;2023-03-31T12:19:51;6.17;;;3.30;;
15946;SDS011;8072;52.554;7.966;2023-03-31T12:24:58;7.00;;;2.93;;
15946;SDS011;8072;52.554;7.966;2023-03-31T12:32:56;5.53;;;2.83;;
15946;SDS011;8072;52.554;7.966;2023-03-31T12:49:28;10.17;;;5.80;;
15946;SDS011;8072;52.554;7.966;2023-03-31T12:52:07;7.40;;;4.00;;
15946;SDS011;8072;52.554;7.966;2023-03-31T12:54:55;7.53;;;4.30;;
15946;SDS011;8072;52.554;7.966;2023-03-31T12:57:35;8.13;;;5.10;;
15946;SDS011;8072;52.554;7.966;2023-03-31T13:02:40;8.90;;;4.97;;
15946;SDS011;8072;52.554;7.966;2023-03-31T13:08:00;7.07;;;4.03;;
15946;SDS011;8072;52.554;7.966;2023-03-31T13:10:28;7.97;;;4.57;;
15946;SDS011;8072;52.554;7.966;2023-03-31T13:12:56;8.20;;;5.20;;
15946;SDS011;8072;52.554;7.966;2023-03-31T13:15:26;6.00;;;4.50;;
15946;SDS011;8072;52.554;7.966;2023-03-31T13:17:56;8.97;;;4.87;;
15946;SDS011;8072;52.554;7.966;2023-03-31T13:20:34;10.70;;;4.40;;
15946;SDS011;8072;52.554;7.966;2023-03-31T13:25:50;8.27;;;4.77;;
15946;SDS011;8072;52.554;7.966;2023-03-31T13:30:56;10.37;;;4.77;;
15946;SDS011;8072;52.554;7.966;2023-03-31T13:33:58;6.30;;;3.57;;
15946;SDS011;8072;52.554;7.966;2023-03-31T13:47:39;14.27;;;4.63;;
15946;SDS011;8072;52.554;7.966;2023-03-31T13:56:08;9.70;;;4.10;;
15946;SDS011;8072;52.554;7.966;2023-03-31T14:07:12;8.63;;;3.90;;
15946;SDS011;8072;52.554;7.966;2023-03-31T14:09:44;12.27;;;4.30;;
15946;SDS011;8072;52.554;7.966;2023-03-31T14:12:35;9.20;;;4.40;;
15946;SDS011;8072;52.554;7.966;2023-03-31T14:15:02;13.17;;;4.80;;
15946;SDS011;8072;52.554;7.966;2023-03-31T14:17:37;10.93;;;4.33;;
15946;SDS011;8072;52.554;7.966;2023-03-31T14:39:22;5.17;;;1.53;;
15946;SDS011;8072;52.554;7.966;2023-03-31T14:41:53;7.60;;;1.77;;
15946;SDS011;8072;52.554;7.966;2023-03-31T14:44:20;8.13;;;1.60;;
15946;SDS011;8072;52.554;7.966;2023-03-31T14:46:49;7.43;;;2.07;;
15946;SDS011;8072;52.554;7.966;2023-03-31T14:49:25;5.63;;;2.07;;
15946;SDS011;8072;52.554;7.966;2023-03-31T14:52:07;9.10;;;2.17;;
15946;SDS011;8072;52.554;7.966;2023-03-31T14:54:44;9.07;;;1.93;;
15946;SDS011;8072;52.554;7.966;2023-03-31T14:57:16;8.17;;;1.93;;
15946;SDS011;8072;52.554;7.966;2023-03-31T14:59:49;6.10;;;2.13;;
15946;SDS011;8072;52.554;7.966;2023-03-31T15:02:21;8.07;;;1.77;;
15946;SDS011;8072;52.554;7.966;2023-03-31T15:05:00;6.27;;;2.00;;
15946;SDS011;8072;52.554;7.966;2023-03-31T15:07:31;4.73;;;1.80;;
15946;SDS011;8072;52.554;7.966;2023-03-31T15:09:57;7.23;;;1.80;;
15946;SDS011;8072;52.554;7.966;2023-03-31T15:12:24;11.20;;;2.53;;
15946;SDS011;8072;52.554;7.966;2023-03-31T15:14:56;8.90;;;2.43;;
15946;SDS011;8072;52.554;7.966;2023-03-31T15:17:30;10.47;;;1.60;;
15946;SDS011;8072;52.554;7.966;2023-03-31T15:20:01;6.87;;;1.87;;
15946;SDS011;8072;52.554;7.966;2023-03-31T15:22:47;10.20;;;1.70;;
15946;SDS011;8072;52.554;7.966;2023-03-31T15:25:13;8.00;;;2.40;;
15946;SDS011;8072;52.554;7.966;2023-03-31T15:27:46;10.67;;;1.93;;
15946;SDS011;8072;52.554;7.966;2023-03-31T15:30:18;8.30;;;2.30;;
15946;SDS011;8072;52.554;7.966;2023-03-31T15:32:49;6.07;;;2.00;;
15946;SDS011;8072;52.554;7.966;2023-03-31T15:35:18;10.33;;;1.40;;
15946;SDS011;8072;52.554;7.966;2023-03-31T15:37:45;12.63;;;1.97;;
15946;SDS011;8072;52.554;7.966;2023-03-31T15:40:21;6.47;;;1.40;;
15946;SDS011;8072;52.554;7.966;2023-03-31T15:43:03;9.03;;;1.73;;
15946;SDS011;8072;52.554;7.966;2023-03-31T15:45:36;7.03;;;1.90;;
15946;SDS011;8072;52.554;7.966;2023-03-31T15:50:59;8.37;;;1.70;;
15946;SDS011;8072;52.554;7.966;2023-03-31T15:53:29;6.43;;;1.70;;
15946;SDS011;8072;52.554;7.966;2023-03-31T15:56:03;7.50;;;2.17;;
15946;SDS011;8072;52.554;7.966;2023-03-31T16:01:45;2.70;;;1.40;;
15946;SDS011;8072;52.554;7.966;2023-03-31T16:04:13;9.70;;;1.93;;
15946;SDS011;8072;52.554;7.966;2023-03-31T16:06:54;5.00;;;1.70;;
15946;SDS011;8072;52.554;7.966;2023-03-31T16:11:52;7.30;;;2.00;;
15946;SDS011;8072;52.554;7.966;2023-03-31T16:14:33;4.97;;;1.97;;
15946;SDS011;8072;52.554;7.966;2023-03-31T16:17:20;7.67;;;1.80;;
15946;SDS011;8072;52.554;7.966;2023-03-31T16:20:02;6.00;;;1.60;;
15946;SDS011;8072;52.554;7.966;2023-03-31T16:22:33;6.83;;;1.73;;
15946;SDS011;8072;52.554;7.966;2023-03-31T16:25:09;8.00;;;2.07;;
15946;SDS011;8072;52.554;7.966;2023-03-31T16:27:42;8.57;;;1.97;;
15946;SDS011;8072;52.554;7.966;2023-03-31T16:30:18;8.00;;;2.03;;
15946;SDS011;8072;52.554;7.966;2023-03-31T16:32:59;9.40;;;2.13;;
15946;SDS011;8072;52.554;7.966;2023-03-31T16:35:31;7.53;;;1.57;;
15946;SDS011;8072;52.554;7.966;2023-03-31T16:38:01;7.20;;;1.70;;
15946;SDS011;8072;52.554;7.966;2023-03-31T16:40:28;8.70;;;1.47;;
15946;SDS011;8072;52.554;7.966;2023-03-31T16:46:07;8.37;;;1.60;;
15946;SDS011;8072;52.554;7.966;2023-03-31T16:48:33;8.93;;;1.70;;
15946;SDS011;8072;52.554;7.966;2023-03-31T16:50:59;8.50;;;1.87;;
15946;SDS011;8072;52.554;7.966;2023-03-31T16:53:26;5.60;;;1.80;;
15946;SDS011;8072;52.554;7.966;2023-03-31T16:55:55;8.30;;;1.50;;
15946;SDS011;8072;52.554;7.966;2023-03-31T16:58:21;4.87;;;1.10;;
15946;SDS011;8072;52.554;7.966;2023-03-31T17:00:49;4.43;;;0.90;;
15946;SDS011;8072;52.554;7.966;2023-03-31T17:03:15;3.00;;;1.00;;
15946;SDS011;8072;52.554;7.966;2023-03-31T17:05:42;2.60;;;1.07;;
15946;SDS011;8072;52.554;7.966;2023-03-31T17:08:10;3.80;;;1.03;;
15946;SDS011;8072;52.554;7.966;2023-03-31T17:10:37;2.30;;;0.80;;
15946;SDS011;8072;52.554;7.966;2023-03-31T17:13:04;2.20;;;0.90;;
15946;SDS011;8072;52.554;7.966;2023-03-31T17:15:31;2.40;;;0.90;;
15946;SDS011;8072;52.554;7.966;2023-03-31T17:17:58;1.30;;;0.87;;
15946;SDS011;8072;52.554;7.966;2023-03-31T17:20:24;4.43;;;1.20;;
15946;SDS011;8072;52.554;7.966;2023-03-31T17:22:50;4.03;;;1.00;;
15946;SDS011;8072;52.554;7.966;2023-03-31T17:25:17;3.23;;;0.87;;
15946;SDS011;8072;52.554;7.966;2023-03-31T17:27:43;4.80;;;0.93;;
15946;SDS011;8072;52.554;7.966;2023-03-31T17:30:09;5.87;;;1.23;;
15946;SDS011;8072;52.554;7.966;2023-03-31T17:32:36;3.47;;;1.03;;
15946;SDS011;8072;52.554;7.966;2023-03-31T17:35:03;3.13;;;0.90;;
15946;SDS011;8072;52.554;7.966;2023-03-31T17:37:30;4.77;;;0.90;;
15946;SDS011;8072;52.554;7.966;2023-03-31T17:39:58;3.97;;;0.80;;
15946;SDS011;8072;52.554;7.966;2023-03-31T17:42:24;3.57;;;1.20;;
15946;SDS011;8072;52.554;7.966;2023-03-31T17:44:50;2.93;;;1.00;;
15946;SDS011;8072;52.554;7.966;2023-03-31T17:47:18;4.03;;;1.30;;
15946;SDS011;8072;52.554;7.966;2023-03-31T17:49:44;3.67;;;1.10;;
15946;SDS011;8072;52.554;7.966;2023-03-31T17:52:12;2.17;;;0.90;;
15946;SDS011;8072;52.554;7.966;2023-03-31T17:54:38;2.77;;;1.10;;
15946;SDS011;8072;52.554;7.966;2023-03-31T17:57:04;4.50;;;1.10;;
15946;SDS011;8072;52.554;7.966;2023-03-31T17:59:30;2.40;;;1.00;;
15946;SDS011;8072;52.554;7.966;2023-03-31T18:01:56;4.20;;;0.93;;
15946;SDS011;8072;52.554;7.966;2023-03-31T18:04:22;3.30;;;0.90;;
15946;SDS011;8072;52.554;7.966;2023-03-31T18:06:48;2.73;;;1.10;;
15946;SDS011;8072;52.554;7.966;2023-03-31T18:09:14;2.73;;;0.90;;
15946;SDS011;8072;52.554;7.966;2023-03-31T18:11:41;3.27;;;1.00;;
15946;SDS011;8072;52.554;7.966;2023-03-31T18:14:08;5.67;;;1.33;;
15946;SDS011;8072;52.554;7.966;2023-03-31T18:16:34;2.60;;;0.97;;
15946;SDS011;8072;52.554;7.966;2023-03-31T18:19:01;4.83;;;1.13;;
15946;SDS011;8072;52.554;7.966;2023-03-31T18:21:27;6.27;;;1.30;;
15946;SDS011;8072;52.554;7.966;2023-03-31T18:23:53;1.67;;;1.20;;
15946;SDS011;8072;52.554;7.966;2023-03-31T18:26:22;4.47;;;1.20;;
15946;SDS011;8072;52.554;7.966;2023-03-31T18:28:50;3.33;;;1.37;;
15946;SDS011;8072;52.554;7.966;2023-03-31T18:31:16;3.30;;;1.10;;